createdAt,value
2023-03-29T12:25:39.579Z,13.43
2023-03-29T12:44:16.793Z,20.28
2023-03-29T13:05:02.278Z,23.37
2023-03-29T13:07:47.293Z,23.35
2023-03-29T13:10:38.348Z,22.50
2023-03-29T13:13:21.157Z,20.82
2023-03-29T13:15:54.975Z,19.75
2023-03-29T13:18:49.086Z,19.85
2023-03-29T13:21:51.771Z,19.82
2023-03-29T13:25:04.494Z,19.76
2023-03-29T13:27:57.683Z,19.54
2023-03-29T13:30:58.755Z,19.31
2023-03-29T13:33:59.111Z,20.19
2023-03-29T13:37:02.109Z,21.47
2023-03-29T14:05:50.191Z,15.61
2023-03-29T14:08:35.809Z,15.33
2023-03-29T14:11:15.927Z,15.45
2023-03-29T14:17:35.224Z,16.78
2023-03-29T14:23:50.226Z,15.43
2023-03-29T14:26:30.934Z,15.30
2023-03-29T14:29:04.092Z,14.07
2023-03-29T14:31:40.357Z,13.37
2023-03-29T14:34:30.312Z,12.89
2023-03-29T14:37:01.416Z,12.57
2023-03-29T14:40:06.196Z,12.21
2023-03-29T14:42:34.972Z,12.15
2023-03-29T14:45:13.852Z,12.32
2023-03-29T14:47:48.153Z,13.15
2023-03-29T14:50:32.106Z,13.28
2023-03-29T14:53:06.457Z,13.42
2023-03-29T14:55:44.070Z,13.21
2023-03-29T15:01:57.073Z,12.31
2023-03-29T15:04:41.117Z,11.51
2023-03-29T15:07:36.941Z,10.95
2023-03-29T15:10:25.781Z,10.96
2023-03-29T15:13:01.308Z,10.73
2023-03-29T15:16:00.455Z,9.98
2023-03-29T15:18:53.506Z,10.46
2023-03-29T15:21:28.173Z,9.60
2023-03-29T15:24:33.412Z,9.54
2023-03-29T15:27:19.710Z,9.39
2023-03-29T15:29:59.404Z,9.81
2023-03-29T21:15:41.750Z,5.82
2023-03-29T21:18:17.320Z,5.47
2023-03-29T21:20:53.476Z,5.79
2023-03-29T21:23:25.082Z,5.23
2023-03-29T21:25:56.332Z,5.64
2023-03-29T21:28:34.164Z,6.00
2023-03-29T21:31:26.621Z,5.59
2023-03-29T21:33:57.179Z,5.30
2023-03-29T21:36:27.780Z,5.74
2023-03-29T21:39:09.003Z,5.30
2023-03-29T21:41:41.823Z,5.35
2023-03-29T21:44:13.198Z,5.22
2023-03-29T21:46:59.339Z,5.76
2023-03-29T21:49:30.251Z,5.32
2023-03-29T21:52:03.532Z,6.01
2023-03-29T21:54:37.334Z,5.74
2023-03-29T21:57:14.753Z,5.31
2023-03-29T21:59:45.363Z,5.37
2023-03-29T22:02:31.099Z,5.72
2023-03-29T22:05:01.886Z,5.78
2023-03-29T22:07:35.397Z,5.72
2023-03-29T22:10:11.843Z,5.77
2023-03-29T22:12:43.886Z,5.73
2023-03-29T22:15:19.548Z,5.57
2023-03-29T22:17:53.210Z,5.40
2023-03-29T22:24:27.591Z,5.56
2023-03-29T22:26:58.138Z,5.55
2023-03-29T22:29:34.542Z,5.20
2023-03-29T22:32:05.413Z,5.31
2023-03-29T22:34:36.143Z,5.93
2023-03-29T22:37:06.665Z,5.92
2023-03-29T22:39:42.339Z,5.21
2023-03-29T22:42:12.871Z,5.38
2023-03-29T22:44:48.507Z,5.38
2023-03-29T22:47:19.974Z,5.25
2023-03-29T22:49:50.423Z,5.48
2023-03-29T22:52:20.899Z,5.37
2023-03-29T22:54:55.881Z,5.23
2023-03-29T22:57:26.531Z,5.73
2023-03-29T22:59:57.038Z,5.21
2023-03-29T23:02:27.678Z,5.68
2023-03-29T23:04:58.151Z,5.07
2023-03-29T23:07:29.136Z,5.87
2023-03-29T23:10:08.226Z,5.71
2023-03-29T23:12:54.016Z,5.60
2023-03-29T23:15:24.562Z,5.42
2023-03-29T23:17:55.697Z,5.28
2023-03-29T23:20:26.090Z,5.40
2023-03-29T23:22:56.612Z,5.37
2023-03-29T23:25:40.206Z,5.46
2023-03-29T23:28:13.755Z,5.37
2023-03-29T23:31:05.852Z,5.41
2023-03-29T23:33:41.740Z,5.83
2023-03-29T23:36:15.895Z,5.85
2023-03-29T23:38:52.836Z,5.57
2023-03-29T23:41:23.362Z,5.82
2023-03-29T23:43:58.022Z,5.50
2023-03-29T23:46:28.584Z,5.59
2023-03-29T23:49:05.650Z,5.84
2023-03-29T23:51:37.110Z,5.38
2023-03-29T23:54:07.439Z,5.13
2023-03-29T23:56:40.077Z,5.02
2023-03-29T23:59:11.028Z,5.58
